createdAt,value
2023-04-18T00:02:23.255Z,18.78
2023-04-18T00:04:50.543Z,18.78
2023-04-18T00:07:17.682Z,18.78
2023-04-18T00:09:44.663Z,18.74
2023-04-18T00:12:11.669Z,18.73
2023-04-18T00:14:38.456Z,18.70
2023-04-18T00:17:09.481Z,18.71
2023-04-18T00:19:43.262Z,18.68
2023-04-18T00:22:11.376Z,18.66
2023-04-18T00:24:37.990Z,18.64
2023-04-18T00:27:04.562Z,18.64
2023-04-18T00:29:31.857Z,18.61
2023-04-18T00:31:58.479Z,18.63
2023-04-18T00:34:25.011Z,18.59
2023-04-18T00:36:51.595Z,18.60
2023-04-18T00:39:18.168Z,18.55
2023-04-18T00:41:44.726Z,18.56
2023-04-18T00:44:11.468Z,18.56
2023-04-18T00:46:38.169Z,18.51
2023-04-18T00:49:05.003Z,18.52
2023-04-18T00:51:32.586Z,18.48
2023-04-18T00:53:59.350Z,18.49
2023-04-18T00:56:26.709Z,18.48
2023-04-18T00:58:53.670Z,18.45
2023-04-18T01:01:20.256Z,18.44
2023-04-18T01:03:46.977Z,18.44
2023-04-18T01:06:13.848Z,18.42
2023-04-18T01:08:42.028Z,18.39
2023-04-18T01:11:08.628Z,18.40
2023-04-18T01:13:35.318Z,18.38
2023-04-18T01:16:01.927Z,18.35
2023-04-18T01:18:31.521Z,18.36
2023-04-18T01:21:00.486Z,18.34
2023-04-18T01:23:27.160Z,18.34
2023-04-18T01:25:53.673Z,18.31
2023-04-18T01:28:23.616Z,18.30
2023-04-18T01:30:50.180Z,18.29
2023-04-18T01:33:16.792Z,18.28
2023-04-18T01:35:43.371Z,18.28
2023-04-18T01:38:09.958Z,18.26
2023-04-18T01:40:36.501Z,18.25
2023-04-18T01:43:03.037Z,18.24
2023-04-18T01:45:29.622Z,18.23
2023-04-18T01:47:56.176Z,18.23
2023-04-18T01:50:23.003Z,18.20
2023-04-18T01:52:49.571Z,18.19
2023-04-18T01:55:16.111Z,18.17
2023-04-18T01:57:42.773Z,18.17
2023-04-18T02:00:09.892Z,18.15
2023-04-18T02:02:36.576Z,18.14
2023-04-18T02:05:03.304Z,18.13
2023-04-18T02:07:29.966Z,18.12
2023-04-18T02:09:56.686Z,18.12
2023-04-18T02:12:23.311Z,18.10
2023-04-18T02:14:56.433Z,18.10
2023-04-18T02:17:23.674Z,18.08
2023-04-18T02:19:51.640Z,18.09
2023-04-18T02:22:18.657Z,18.07
2023-04-18T02:24:45.511Z,18.05
2023-04-18T02:27:12.154Z,18.04
2023-04-18T02:29:38.749Z,18.05
2023-04-18T02:32:05.712Z,18.04
2023-04-18T02:34:33.780Z,18.03
2023-04-18T02:37:00.598Z,18.02
2023-04-18T02:39:27.268Z,18.01
2023-04-18T02:41:53.862Z,18.00
2023-04-18T02:44:20.481Z,17.99
2023-04-18T02:46:47.104Z,17.98
2023-04-18T02:49:13.660Z,17.98
2023-04-18T02:51:40.207Z,17.97
2023-04-18T02:54:06.729Z,17.95
2023-04-18T02:56:33.498Z,17.93
2023-04-18T02:59:00.135Z,17.95
2023-04-18T03:01:26.777Z,17.93
2023-04-18T03:03:53.721Z,17.93
2023-04-18T03:06:20.260Z,17.92
2023-04-18T03:08:46.805Z,17.91
2023-04-18T03:11:13.326Z,17.90
2023-04-18T03:13:39.865Z,17.89
2023-04-18T03:16:06.970Z,17.89
2023-04-18T03:18:33.535Z,17.88
2023-04-18T03:21:00.068Z,17.85
2023-04-18T03:23:26.623Z,17.84
2023-04-18T03:25:53.211Z,17.84
2023-04-18T03:28:19.776Z,17.84
2023-04-18T03:30:46.368Z,17.81
2023-04-18T03:33:14.501Z,17.81
2023-04-18T03:35:41.072Z,17.80
2023-04-18T03:38:07.756Z,17.78
2023-04-18T03:40:34.392Z,17.77
2023-04-18T03:43:00.980Z,17.76
2023-04-18T03:45:27.692Z,17.76
2023-04-18T03:47:54.310Z,17.75
2023-04-18T03:50:20.954Z,17.74
2023-04-18T03:52:47.509Z,17.72
2023-04-18T03:55:14.092Z,17.70
2023-04-18T03:57:41.408Z,17.70
2023-04-18T04:00:08.751Z,17.69
2023-04-18T04:02:35.454Z,17.68
2023-04-18T04:05:02.747Z,17.65
2023-04-18T04:07:29.398Z,17.62
2023-04-18T04:09:56.001Z,17.64
2023-04-18T04:12:22.577Z,17.64
2023-04-18T04:14:49.157Z,17.61
2023-04-18T04:17:15.938Z,17.61
2023-04-18T04:19:42.514Z,17.60
2023-04-18T04:22:09.369Z,17.59
2023-04-18T04:24:38.423Z,17.57
2023-04-18T04:27:05.328Z,17.55
2023-04-18T04:29:31.869Z,17.55
2023-04-18T04:31:59.588Z,17.54
2023-04-18T04:34:26.797Z,17.52
2023-04-18T04:36:54.609Z,17.51
2023-04-18T04:39:21.240Z,17.50
2023-04-18T04:41:48.921Z,17.50
2023-04-18T04:44:18.273Z,17.49
2023-04-18T04:46:44.928Z,17.46
2023-04-18T04:49:11.937Z,17.45
2023-04-18T04:51:38.566Z,17.44
2023-04-18T04:54:05.339Z,17.43
2023-04-18T04:56:32.284Z,17.42
2023-04-18T04:58:58.821Z,17.40
2023-04-18T05:01:25.732Z,17.42
2023-04-18T05:03:52.797Z,17.40
2023-04-18T05:06:20.864Z,17.40
2023-04-18T05:08:48.204Z,17.37
2023-04-18T05:11:15.428Z,17.38
2023-04-18T05:13:41.993Z,17.37
2023-04-18T05:16:08.740Z,17.36
2023-04-18T05:18:39.072Z,17.37
2023-04-18T05:21:06.086Z,17.34
2023-04-18T05:23:34.836Z,17.36
2023-04-18T05:26:01.409Z,17.33
2023-04-18T05:28:27.974Z,17.33
2023-04-18T05:31:01.165Z,17.32
2023-04-18T05:33:29.192Z,17.30
2023-04-18T05:35:57.550Z,17.28
2023-04-18T05:38:24.323Z,17.24
2023-04-18T05:40:55.920Z,17.26
2023-04-18T05:43:23.258Z,17.22
2023-04-18T05:45:52.319Z,17.21
2023-04-18T05:48:19.381Z,17.21
2023-04-18T05:50:46.206Z,17.20
2023-04-18T05:53:12.872Z,17.18
2023-04-18T05:55:41.049Z,17.19
2023-04-18T05:58:07.844Z,17.18
2023-04-18T06:00:34.833Z,17.18
2023-04-18T06:03:01.519Z,17.17
2023-04-18T06:05:28.802Z,17.17
2023-04-18T06:07:55.691Z,17.17
2023-04-18T06:10:22.279Z,17.16
2023-04-18T06:12:48.858Z,17.17
2023-04-18T06:15:15.363Z,17.16
2023-04-18T06:17:41.978Z,17.16
2023-04-18T06:20:10.332Z,17.15
2023-04-18T06:22:36.902Z,17.15
2023-04-18T06:25:03.710Z,17.15
2023-04-18T06:27:31.975Z,17.14
2023-04-18T06:29:58.781Z,17.13
2023-04-18T06:32:25.477Z,17.15
2023-04-18T06:34:53.070Z,17.15
2023-04-18T06:37:20.132Z,17.16
2023-04-18T06:39:46.818Z,17.16
2023-04-18T06:42:13.436Z,17.16
2023-04-18T06:44:40.038Z,17.19
2023-04-18T06:47:06.602Z,17.22
2023-04-18T06:49:33.156Z,17.26
2023-04-18T06:51:59.718Z,17.30
2023-04-18T06:54:26.313Z,17.35
2023-04-18T06:56:53.696Z,17.43
2023-04-18T06:59:21.592Z,17.53
2023-04-18T07:01:48.982Z,17.60
2023-04-18T07:04:15.750Z,17.66
2023-04-18T07:06:43.188Z,17.68
2023-04-18T07:09:09.701Z,17.70
2023-04-18T07:11:36.261Z,17.70
2023-04-18T07:14:02.818Z,17.72
2023-04-18T07:16:29.429Z,17.72
2023-04-18T07:18:56.112Z,17.73
2023-04-18T07:21:23.847Z,17.76
2023-04-18T07:23:50.465Z,17.77
2023-04-18T07:26:17.024Z,17.80
2023-04-18T07:28:43.578Z,17.83
2023-04-18T07:31:11.609Z,17.85
2023-04-18T07:33:38.685Z,17.86
2023-04-18T07:36:05.739Z,17.87
2023-04-18T07:38:34.715Z,17.89
2023-04-18T07:41:02.229Z,17.90
2023-04-18T07:43:28.855Z,17.92
2023-04-18T07:45:55.883Z,17.93
2023-04-18T07:48:22.790Z,17.97
2023-04-18T07:50:49.579Z,18.08
2023-04-18T07:53:16.782Z,18.20
2023-04-18T07:55:43.526Z,18.34
2023-04-18T07:58:10.198Z,18.45
2023-04-18T08:00:39.262Z,18.49
2023-04-18T08:03:07.739Z,18.59
2023-04-18T08:05:34.804Z,18.68
2023-04-18T08:08:01.569Z,18.78
2023-04-18T08:10:28.348Z,18.93
2023-04-18T08:12:55.037Z,19.10
2023-04-18T08:15:21.609Z,19.23
2023-04-18T08:17:49.220Z,19.36
2023-04-18T08:20:16.002Z,19.48
2023-04-18T08:22:57.711Z,19.60
2023-04-18T08:25:29.256Z,19.62
2023-04-18T08:27:55.951Z,19.65
2023-04-18T08:30:22.559Z,19.61
2023-04-18T08:32:49.814Z,19.66
2023-04-18T08:35:16.582Z,19.75
2023-04-18T08:37:43.510Z,19.88
2023-04-18T08:40:10.282Z,20.01
2023-04-18T08:42:40.060Z,19.92
2023-04-18T08:45:07.592Z,19.79
2023-04-18T08:47:35.473Z,19.65
2023-04-18T08:50:02.220Z,19.49
2023-04-18T08:52:30.982Z,19.37
2023-04-18T08:54:57.652Z,19.27
2023-04-18T08:57:27.405Z,19.19
2023-04-18T08:59:55.362Z,19.11
2023-04-18T09:02:35.172Z,19.05
2023-04-18T09:05:11.023Z,19.00
2023-04-18T09:07:37.552Z,18.94
2023-04-18T09:10:04.400Z,18.91
2023-04-18T09:12:32.619Z,18.89
2023-04-18T09:15:16.694Z,18.86
2023-04-18T09:17:52.538Z,18.84
2023-04-18T09:20:44.606Z,18.82
2023-04-18T09:23:16.276Z,18.81
2023-04-18T09:25:49.198Z,18.80
2023-04-18T09:28:29.794Z,18.79
2023-04-18T09:30:58.699Z,18.77
2023-04-18T09:33:33.273Z,18.77
2023-04-18T09:36:20.719Z,18.75
2023-04-18T09:38:49.122Z,18.77
2023-04-18T09:41:19.892Z,18.76
2023-04-18T09:43:48.290Z,18.77
2023-04-18T09:46:17.599Z,18.75
2023-04-18T09:48:44.345Z,18.77
2023-04-18T09:51:15.744Z,18.78
2023-04-18T09:53:51.071Z,18.77
2023-04-18T09:56:28.367Z,18.78
2023-04-18T09:59:11.701Z,18.80
2023-04-18T10:01:41.266Z,18.80
2023-04-18T10:04:09.231Z,18.80
2023-04-18T10:06:42.103Z,18.81
2023-04-18T10:09:10.204Z,18.82
2023-04-18T10:11:37.145Z,18.83
2023-04-18T10:14:08.396Z,18.86
2023-04-18T10:16:36.450Z,18.86
2023-04-18T10:19:26.150Z,18.89
2023-04-18T10:21:57.670Z,18.89
2023-04-18T10:24:49.691Z,18.91
2023-04-18T10:27:18.066Z,18.89
2023-04-18T10:29:51.211Z,18.90
2023-04-18T10:32:23.457Z,18.91
2023-04-18T10:34:53.419Z,18.92
2023-04-18T10:37:20.291Z,18.92
2023-04-18T10:40:17.755Z,18.94
2023-04-18T10:42:47.157Z,18.97
2023-04-18T10:45:24.609Z,19.00
2023-04-18T10:48:11.382Z,18.99
2023-04-18T10:51:14.190Z,19.00
2023-04-18T10:53:48.445Z,19.01
2023-04-18T10:56:15.799Z,19.01
2023-04-18T10:58:49.213Z,19.03
2023-04-18T11:01:18.748Z,19.03
2023-04-18T11:03:46.016Z,19.04
2023-04-18T11:06:12.712Z,19.06
2023-04-18T11:08:39.618Z,19.07
2023-04-18T11:11:09.426Z,19.08
2023-04-18T11:13:36.897Z,19.08
2023-04-18T11:16:03.994Z,19.07
2023-04-18T11:18:41.316Z,19.07
2023-04-18T11:21:07.942Z,19.07
2023-04-18T11:23:34.551Z,19.08
2023-04-18T11:26:01.155Z,19.07
2023-04-18T11:28:28.512Z,19.08
2023-04-18T11:30:58.420Z,19.09
2023-04-18T11:33:30.135Z,19.10
2023-04-18T11:35:58.697Z,19.10
2023-04-18T11:38:33.823Z,19.11
2023-04-18T11:41:02.728Z,19.12
2023-04-18T11:43:29.263Z,19.12
2023-04-18T11:45:59.654Z,19.13
2023-04-18T11:48:42.374Z,19.13
2023-04-18T11:51:36.017Z,19.14
2023-04-18T11:54:02.684Z,19.13
2023-04-18T11:56:29.314Z,19.15
2023-04-18T11:58:56.342Z,19.15
2023-04-18T12:01:25.213Z,19.16
2023-04-18T12:04:08.150Z,19.17
2023-04-18T12:06:52.542Z,19.17
2023-04-18T12:09:21.314Z,19.16
2023-04-18T12:12:02.819Z,19.18
2023-04-18T12:14:30.433Z,19.19
2023-04-18T12:16:57.067Z,19.18
2023-04-18T12:19:28.200Z,19.19
2023-04-18T12:22:05.238Z,19.19
2023-04-18T12:24:32.612Z,19.21
2023-04-18T12:26:59.573Z,19.21
2023-04-18T12:29:28.340Z,19.21
2023-04-18T12:31:55.371Z,19.22
2023-04-18T12:34:21.933Z,19.22
2023-04-18T12:36:48.503Z,19.23
2023-04-18T12:39:15.093Z,19.23
2023-04-18T12:41:41.636Z,19.24
2023-04-18T12:44:08.224Z,19.25
2023-04-18T12:46:34.870Z,19.25
2023-04-18T12:49:01.557Z,19.26
2023-04-18T12:51:28.100Z,19.26
2023-04-18T12:53:54.704Z,19.26
2023-04-18T12:56:21.552Z,19.27
2023-04-18T12:58:48.108Z,19.27
2023-04-18T13:01:15.270Z,19.26
2023-04-18T13:03:42.113Z,19.28
2023-04-18T13:06:09.084Z,19.27
2023-04-18T13:08:36.025Z,19.28
2023-04-18T13:11:02.585Z,19.28
2023-04-18T13:13:29.161Z,19.28
2023-04-18T13:15:55.694Z,19.30
2023-04-18T13:18:22.208Z,19.31
2023-04-18T13:20:49.673Z,19.31
2023-04-18T13:23:16.227Z,19.31
2023-04-18T13:25:42.780Z,19.32
2023-04-18T13:28:09.354Z,19.31
2023-04-18T13:30:36.018Z,19.33
2023-04-18T13:33:02.685Z,19.33
2023-04-18T13:35:29.277Z,19.35
2023-04-18T13:37:56.107Z,19.33
2023-04-18T13:40:22.731Z,19.35
2023-04-18T13:42:49.249Z,19.37
2023-04-18T13:45:15.919Z,19.37
2023-04-18T13:47:42.535Z,19.38
2023-04-18T13:50:09.585Z,19.38
2023-04-18T13:52:36.436Z,19.40
2023-04-18T13:55:03.852Z,19.41
2023-04-18T13:57:32.317Z,19.40
2023-04-18T13:59:58.900Z,19.42
2023-04-18T14:02:25.692Z,19.42
2023-04-18T14:04:54.286Z,19.43
2023-04-18T14:07:20.886Z,19.43
2023-04-18T14:09:52.110Z,19.45
2023-04-18T14:12:20.349Z,19.45
2023-04-18T14:14:47.070Z,19.46
2023-04-18T14:17:13.634Z,19.47
2023-04-18T14:19:40.274Z,19.49
2023-04-18T14:22:07.863Z,19.49
2023-04-18T14:24:37.441Z,19.51
2023-04-18T14:27:04.102Z,19.50
2023-04-18T14:29:30.929Z,19.53
2023-04-18T14:31:57.597Z,19.53
2023-04-18T14:34:24.186Z,19.54
2023-04-18T14:36:50.705Z,19.55
2023-04-18T14:39:17.293Z,19.55
2023-04-18T14:41:43.899Z,19.57
2023-04-18T14:44:10.678Z,19.57
2023-04-18T14:46:37.205Z,19.57
2023-04-18T14:49:03.741Z,19.60
2023-04-18T14:51:31.198Z,19.61
2023-04-18T14:53:57.797Z,19.63
2023-04-18T14:56:24.381Z,19.65
2023-04-18T14:58:51.086Z,19.65
2023-04-18T15:01:17.657Z,19.66
2023-04-18T15:03:44.980Z,19.67
2023-04-18T15:06:11.647Z,19.69
2023-04-18T15:08:38.406Z,19.70
2023-04-18T15:11:08.415Z,19.72
2023-04-18T15:13:34.993Z,19.73
2023-04-18T15:16:01.819Z,19.76
2023-04-18T15:18:28.813Z,19.76
2023-04-18T15:20:56.977Z,19.75
2023-04-18T15:23:23.694Z,19.78
2023-04-18T15:25:50.253Z,19.79
2023-04-18T15:28:18.237Z,19.80
2023-04-18T15:30:44.893Z,19.81
2023-04-18T15:33:13.362Z,19.82
2023-04-18T15:35:40.337Z,19.84
2023-04-18T15:38:06.918Z,19.84
2023-04-18T15:40:36.142Z,19.86
2023-04-18T15:43:02.761Z,19.88
2023-04-18T15:45:29.359Z,19.89
2023-04-18T15:47:55.939Z,19.90
2023-04-18T15:50:26.083Z,19.91
2023-04-18T15:52:52.669Z,19.92
2023-04-18T15:55:19.260Z,19.92
2023-04-18T15:57:46.383Z,19.95
2023-04-18T16:00:16.620Z,19.96
2023-04-18T16:02:44.613Z,19.96
2023-04-18T16:05:12.630Z,19.97
2023-04-18T16:07:40.270Z,19.98
2023-04-18T16:10:12.688Z,19.99
2023-04-18T16:12:40.280Z,19.99
2023-04-18T16:15:09.403Z,19.99
2023-04-18T16:17:37.002Z,20.00
2023-04-18T16:20:04.371Z,20.00
2023-04-18T16:22:31.050Z,20.00
2023-04-18T16:24:57.641Z,20.01
2023-04-18T16:27:24.204Z,20.03
2023-04-18T16:29:53.814Z,20.04
2023-04-18T16:32:20.933Z,20.06
2023-04-18T16:34:47.589Z,20.06
2023-04-18T16:37:14.201Z,20.07
2023-04-18T16:39:40.741Z,20.07
2023-04-18T16:42:07.296Z,20.08
2023-04-18T16:44:33.891Z,20.09
2023-04-18T16:47:00.837Z,20.11
2023-04-18T16:49:27.594Z,20.11
2023-04-18T16:51:54.106Z,20.12
2023-04-18T16:54:20.740Z,20.12
2023-04-18T16:56:47.485Z,20.12
2023-04-18T16:59:14.297Z,20.12
2023-04-18T17:01:40.922Z,20.13
2023-04-18T17:04:07.557Z,20.12
2023-04-18T17:06:34.327Z,20.11
2023-04-18T17:09:00.932Z,20.09
2023-04-18T17:11:27.933Z,20.09
2023-04-18T17:13:54.483Z,20.09
2023-04-18T17:16:21.157Z,20.09
2023-04-18T17:18:47.733Z,20.10
2023-04-18T17:21:14.344Z,20.10
2023-04-18T17:23:42.512Z,20.09
2023-04-18T17:26:09.556Z,20.09
2023-04-18T17:28:36.512Z,20.09
2023-04-18T17:31:03.769Z,20.08
2023-04-18T17:33:31.005Z,20.09
2023-04-18T17:35:58.052Z,20.10
2023-04-18T17:38:24.723Z,20.09
2023-04-18T17:41:02.336Z,20.09
2023-04-18T17:43:29.083Z,20.08
2023-04-18T17:45:56.867Z,20.07
2023-04-18T17:48:23.423Z,20.06
2023-04-18T17:50:50.022Z,20.06
2023-04-18T17:53:17.558Z,20.06
2023-04-18T17:55:45.169Z,20.05
2023-04-18T17:58:11.774Z,20.04
2023-04-18T18:00:38.388Z,20.03
2023-04-18T18:03:05.223Z,20.04
2023-04-18T18:05:31.940Z,20.04
2023-04-18T18:08:01.049Z,20.04
2023-04-18T18:10:28.073Z,20.03
2023-04-18T18:12:54.637Z,20.03
2023-04-18T18:15:21.291Z,20.01
2023-04-18T18:17:49.716Z,20.02
2023-04-18T18:20:17.214Z,20.01
2023-04-18T18:22:44.402Z,20.00
2023-04-18T18:25:11.108Z,20.00
2023-04-18T18:27:37.820Z,20.00
2023-04-18T18:30:05.163Z,20.00
2023-04-18T18:32:31.736Z,19.98
2023-04-18T18:34:58.487Z,19.99
2023-04-18T18:37:26.079Z,19.99
2023-04-18T18:39:55.388Z,19.98
2023-04-18T18:42:22.432Z,19.98
2023-04-18T18:44:48.970Z,19.96
2023-04-18T18:47:17.420Z,19.96
2023-04-18T18:49:43.979Z,19.95
2023-04-18T18:52:10.796Z,19.95
2023-04-18T18:54:37.413Z,19.95
2023-04-18T18:57:04.099Z,19.95
2023-04-18T18:59:30.918Z,19.93
2023-04-18T19:01:57.558Z,19.93
2023-04-18T19:04:24.415Z,19.93
2023-04-18T19:06:51.300Z,19.92
2023-04-18T19:09:17.904Z,19.89
2023-04-18T19:11:44.472Z,19.91
2023-04-18T19:14:11.036Z,19.90
2023-04-18T19:16:37.781Z,19.90
2023-04-18T19:19:04.546Z,19.89
2023-04-18T19:21:31.403Z,19.89
2023-04-18T19:23:58.047Z,19.88
2023-04-18T19:26:24.573Z,19.88
2023-04-18T19:28:51.226Z,19.87
2023-04-18T19:31:17.787Z,19.87
2023-04-18T19:33:44.379Z,19.86
2023-04-18T19:36:11.181Z,19.86
2023-04-18T19:38:37.741Z,19.86
2023-04-18T19:41:04.298Z,19.84
2023-04-18T19:43:30.838Z,19.82
2023-04-18T19:45:57.702Z,19.83
2023-04-18T19:48:24.309Z,19.82
2023-04-18T19:50:51.141Z,19.82
2023-04-18T19:53:19.017Z,19.81
2023-04-18T19:55:46.176Z,19.80
2023-04-18T19:58:33.104Z,19.79
2023-04-18T20:00:59.719Z,19.78
2023-04-18T20:03:26.487Z,19.78
2023-04-18T20:05:53.172Z,19.78
2023-04-18T20:08:19.900Z,19.76
2023-04-18T20:10:46.432Z,19.77
2023-04-18T20:13:12.970Z,19.76
2023-04-18T20:15:39.681Z,19.75
2023-04-18T20:18:06.685Z,19.74
2023-04-18T20:20:33.360Z,19.74
2023-04-18T20:22:59.952Z,19.73
2023-04-18T20:25:26.601Z,19.73
2023-04-18T20:27:53.137Z,19.74
2023-04-18T20:30:21.194Z,19.72
2023-04-18T20:32:47.869Z,19.69
2023-04-18T20:35:14.600Z,19.67
2023-04-18T20:37:41.414Z,19.65
2023-04-18T20:40:08.935Z,19.61
2023-04-18T20:42:36.722Z,19.58
2023-04-18T20:45:03.913Z,19.55
2023-04-18T20:47:30.499Z,19.54
2023-04-18T20:49:57.036Z,19.51
2023-04-18T20:52:23.566Z,19.49
2023-04-18T20:54:50.297Z,19.47
2023-04-18T20:57:16.823Z,19.45
2023-04-18T20:59:43.386Z,19.43
2023-04-18T21:02:10.323Z,19.42
2023-04-18T21:04:37.287Z,19.40
2023-04-18T21:07:04.007Z,19.38
2023-04-18T21:09:36.282Z,19.37
2023-04-18T21:12:04.058Z,19.34
2023-04-18T21:14:30.611Z,19.32
2023-04-18T21:16:57.497Z,19.32
2023-04-18T21:19:24.583Z,19.29
2023-04-18T21:21:51.242Z,19.28
2023-04-18T21:24:18.046Z,19.26
2023-04-18T21:26:44.655Z,19.27
2023-04-18T21:29:11.213Z,19.27
2023-04-18T21:31:37.855Z,19.23
2023-04-18T21:34:05.470Z,19.23
2023-04-18T21:36:32.533Z,19.21
2023-04-18T21:39:00.743Z,19.19
2023-04-18T21:41:27.631Z,19.18
2023-04-18T21:43:54.317Z,19.16
2023-04-18T21:46:23.792Z,19.16
2023-04-18T21:48:50.369Z,19.14
2023-04-18T21:51:17.330Z,19.13
2023-04-18T21:53:43.907Z,19.12
2023-04-18T21:56:11.021Z,19.10
2023-04-18T21:58:37.683Z,19.09
2023-04-18T22:01:04.381Z,19.10
2023-04-18T22:03:31.704Z,19.08
2023-04-18T22:05:58.900Z,19.07
2023-04-18T22:08:26.307Z,19.08
2023-04-18T22:10:54.942Z,19.05
2023-04-18T22:13:25.984Z,19.04
2023-04-18T22:15:52.565Z,19.05
2023-04-18T22:18:19.312Z,19.04
2023-04-18T22:20:46.928Z,19.04
2023-04-18T22:23:14.375Z,19.02
2023-04-18T22:25:40.999Z,19.00
2023-04-18T22:28:07.783Z,18.99
2023-04-18T22:30:34.454Z,18.98
2023-04-18T22:33:01.185Z,18.97
2023-04-18T22:35:27.937Z,18.96
2023-04-18T22:37:55.909Z,18.95
2023-04-18T22:40:22.887Z,18.94
2023-04-18T22:42:51.864Z,18.92
2023-04-18T22:45:19.435Z,18.91
2023-04-18T22:47:46.766Z,18.91
2023-04-18T22:50:14.056Z,18.92
2023-04-18T22:52:41.192Z,18.92
2023-04-18T22:55:09.021Z,18.90
2023-04-18T22:57:35.691Z,18.89
2023-04-18T23:00:02.540Z,18.85
2023-04-18T23:02:29.247Z,18.83
2023-04-18T23:04:58.369Z,18.83
2023-04-18T23:07:25.091Z,18.81
2023-04-18T23:09:51.636Z,18.79
2023-04-18T23:12:18.192Z,18.79
2023-04-18T23:14:44.719Z,18.77
2023-04-18T23:17:11.288Z,18.77
2023-04-18T23:19:38.701Z,18.77
2023-04-18T23:22:05.261Z,18.77
2023-04-18T23:24:32.063Z,18.73
2023-04-18T23:26:58.622Z,18.74
2023-04-18T23:29:25.262Z,18.74
2023-04-18T23:31:51.895Z,18.73
2023-04-18T23:34:18.450Z,18.71
2023-04-18T23:36:45.150Z,18.70
2023-04-18T23:39:11.854Z,18.68
2023-04-18T23:41:38.461Z,18.67
2023-04-18T23:44:05.681Z,18.66
2023-04-18T23:46:32.978Z,18.63
2023-04-18T23:49:00.891Z,18.63
2023-04-18T23:51:28.013Z,18.62
2023-04-18T23:53:54.563Z,18.61
2023-04-18T23:56:21.799Z,18.59
2023-04-18T23:58:48.362Z,18.60
